sensor_id;sensor_type;location;lat;lon;timestamp;P1;durP1;ratioP1;P2;durP2;ratioP2
18503;SDS011;9381;54.244;10.074;2024-03-22T00:02:17;31.03;;;18.17;;
18503;SDS011;9381;54.244;10.074;2024-03-22T00:07:18;34.37;;;19.53;;
18503;SDS011;9381;54.244;10.074;2024-03-22T00:12:18;32.07;;;18.93;;
18503;SDS011;9381;54.244;10.074;2024-03-22T00:17:18;32.87;;;19.70;;
18503;SDS011;9381;54.244;10.074;2024-03-22T00:22:19;29.55;;;18.42;;
18503;SDS011;9381;54.244;10.074;2024-03-22T00:27:19;32.88;;;20.55;;
18503;SDS011;9381;54.244;10.074;2024-03-22T00:32:19;31.83;;;19.87;;
18503;SDS011;9381;54.244;10.074;2024-03-22T00:37:20;32.70;;;19.77;;
18503;SDS011;9381;54.244;10.074;2024-03-22T00:42:20;37.70;;;20.77;;
18503;SDS011;9381;54.244;10.074;2024-03-22T00:47:20;36.83;;;22.07;;
18503;SDS011;9381;54.244;10.074;2024-03-22T00:52:21;36.23;;;21.43;;
18503;SDS011;9381;54.244;10.074;2024-03-22T00:57:21;33.43;;;20.67;;
18503;SDS011;9381;54.244;10.074;2024-03-22T01:02:22;38.60;;;22.10;;
18503;SDS011;9381;54.244;10.074;2024-03-22T01:07:22;37.63;;;22.27;;
18503;SDS011;9381;54.244;10.074;2024-03-22T01:12:23;33.10;;;21.25;;
18503;SDS011;9381;54.244;10.074;2024-03-22T01:17:23;36.27;;;22.07;;
18503;SDS011;9381;54.244;10.074;2024-03-22T01:22:24;37.33;;;23.63;;
18503;SDS011;9381;54.244;10.074;2024-03-22T01:27:24;37.80;;;24.17;;
18503;SDS011;9381;54.244;10.074;2024-03-22T01:32:24;38.40;;;23.13;;
18503;SDS011;9381;54.244;10.074;2024-03-22T01:37:25;42.67;;;25.97;;
18503;SDS011;9381;54.244;10.074;2024-03-22T01:42:25;45.75;;;25.02;;
18503;SDS011;9381;54.244;10.074;2024-03-22T01:47:25;43.67;;;25.90;;
18503;SDS011;9381;54.244;10.074;2024-03-22T01:52:26;45.90;;;26.93;;
18503;SDS011;9381;54.244;10.074;2024-03-22T01:57:27;45.27;;;26.40;;
18503;SDS011;9381;54.244;10.074;2024-03-22T02:02:27;45.07;;;28.60;;
18503;SDS011;9381;54.244;10.074;2024-03-22T02:07:29;46.20;;;27.70;;
18503;SDS011;9381;54.244;10.074;2024-03-22T02:12:30;46.27;;;28.30;;
18503;SDS011;9381;54.244;10.074;2024-03-22T02:17:31;47.47;;;28.23;;
18503;SDS011;9381;54.244;10.074;2024-03-22T02:22:31;46.57;;;29.60;;
18503;SDS011;9381;54.244;10.074;2024-03-22T02:27:32;46.80;;;28.80;;
18503;SDS011;9381;54.244;10.074;2024-03-22T02:32:32;47.90;;;28.50;;
18503;SDS011;9381;54.244;10.074;2024-03-22T02:37:33;50.67;;;30.97;;
18503;SDS011;9381;54.244;10.074;2024-03-22T02:42:33;50.87;;;30.40;;
18503;SDS011;9381;54.244;10.074;2024-03-22T02:47:34;50.17;;;31.07;;
18503;SDS011;9381;54.244;10.074;2024-03-22T02:52:34;53.63;;;31.73;;
18503;SDS011;9381;54.244;10.074;2024-03-22T02:57:34;56.08;;;31.92;;
18503;SDS011;9381;54.244;10.074;2024-03-22T03:02:35;51.30;;;30.00;;
18503;SDS011;9381;54.244;10.074;2024-03-22T03:07:35;51.70;;;31.60;;
18503;SDS011;9381;54.244;10.074;2024-03-22T03:12:36;47.73;;;30.53;;
18503;SDS011;9381;54.244;10.074;2024-03-22T03:17:36;52.55;;;32.10;;
18503;SDS011;9381;54.244;10.074;2024-03-22T03:22:36;53.73;;;32.67;;
18503;SDS011;9381;54.244;10.074;2024-03-22T03:27:37;53.65;;;31.92;;
18503;SDS011;9381;54.244;10.074;2024-03-22T03:32:37;57.80;;;34.50;;
18503;SDS011;9381;54.244;10.074;2024-03-22T03:37:37;57.43;;;33.77;;
18503;SDS011;9381;54.244;10.074;2024-03-22T03:42:37;53.40;;;33.10;;
18503;SDS011;9381;54.244;10.074;2024-03-22T03:47:38;57.37;;;35.53;;
18503;SDS011;9381;54.244;10.074;2024-03-22T03:52:38;57.00;;;33.50;;
18503;SDS011;9381;54.244;10.074;2024-03-22T03:57:38;55.60;;;33.97;;
18503;SDS011;9381;54.244;10.074;2024-03-22T04:02:39;58.03;;;34.92;;
18503;SDS011;9381;54.244;10.074;2024-03-22T04:07:39;55.10;;;34.23;;
18503;SDS011;9381;54.244;10.074;2024-03-22T04:12:39;62.53;;;34.97;;
18503;SDS011;9381;54.244;10.074;2024-03-22T04:17:40;55.37;;;34.93;;
18503;SDS011;9381;54.244;10.074;2024-03-22T04:22:40;55.77;;;35.20;;
18503;SDS011;9381;54.244;10.074;2024-03-22T04:27:40;55.20;;;35.43;;
18503;SDS011;9381;54.244;10.074;2024-03-22T04:32:41;61.83;;;36.60;;
18503;SDS011;9381;54.244;10.074;2024-03-22T04:37:41;59.03;;;37.13;;
18503;SDS011;9381;54.244;10.074;2024-03-22T04:42:41;64.23;;;37.53;;
18503;SDS011;9381;54.244;10.074;2024-03-22T04:47:42;62.13;;;37.73;;
18503;SDS011;9381;54.244;10.074;2024-03-22T04:52:43;57.77;;;36.43;;
18503;SDS011;9381;54.244;10.074;2024-03-22T04:57:43;64.37;;;38.73;;
18503;SDS011;9381;54.244;10.074;2024-03-22T05:02:44;69.75;;;40.42;;
18503;SDS011;9381;54.244;10.074;2024-03-22T05:07:44;58.60;;;37.57;;
18503;SDS011;9381;54.244;10.074;2024-03-22T05:12:45;68.90;;;39.67;;
18503;SDS011;9381;54.244;10.074;2024-03-22T05:17:45;75.90;;;41.33;;
18503;SDS011;9381;54.244;10.074;2024-03-22T05:22:46;69.93;;;38.90;;
18503;SDS011;9381;54.244;10.074;2024-03-22T05:27:47;68.27;;;41.23;;
18503;SDS011;9381;54.244;10.074;2024-03-22T05:32:48;75.47;;;43.37;;
18503;SDS011;9381;54.244;10.074;2024-03-22T05:37:50;85.37;;;45.97;;
18503;SDS011;9381;54.244;10.074;2024-03-22T05:42:50;75.43;;;43.37;;
18503;SDS011;9381;54.244;10.074;2024-03-22T05:47:51;76.90;;;44.93;;
18503;SDS011;9381;54.244;10.074;2024-03-22T05:52:51;82.27;;;46.83;;
18503;SDS011;9381;54.244;10.074;2024-03-22T05:57:52;89.67;;;49.03;;
18503;SDS011;9381;54.244;10.074;2024-03-22T06:02:52;88.13;;;48.70;;
18503;SDS011;9381;54.244;10.074;2024-03-22T06:07:52;94.53;;;50.73;;
18503;SDS011;9381;54.244;10.074;2024-03-22T06:12:53;88.07;;;47.73;;
18503;SDS011;9381;54.244;10.074;2024-03-22T06:17:53;92.28;;;49.33;;
18503;SDS011;9381;54.244;10.074;2024-03-22T06:22:54;96.82;;;50.33;;
18503;SDS011;9381;54.244;10.074;2024-03-22T06:27:54;92.30;;;50.22;;
18503;SDS011;9381;54.244;10.074;2024-03-22T06:32:54;93.43;;;50.03;;
18503;SDS011;9381;54.244;10.074;2024-03-22T06:37:55;95.43;;;50.92;;
18503;SDS011;9381;54.244;10.074;2024-03-22T06:42:55;94.40;;;51.23;;
18503;SDS011;9381;54.244;10.074;2024-03-22T06:47:56;91.83;;;49.07;;
18503;SDS011;9381;54.244;10.074;2024-03-22T06:52:56;95.07;;;50.90;;
18503;SDS011;9381;54.244;10.074;2024-03-22T06:57:56;102.80;;;54.58;;
18503;SDS011;9381;54.244;10.074;2024-03-22T07:02:56;99.33;;;51.30;;
18503;SDS011;9381;54.244;10.074;2024-03-22T07:07:57;107.43;;;53.83;;
18503;SDS011;9381;54.244;10.074;2024-03-22T07:12:57;100.57;;;52.77;;
18503;SDS011;9381;54.244;10.074;2024-03-22T07:17:58;102.23;;;51.63;;
18503;SDS011;9381;54.244;10.074;2024-03-22T07:22:58;92.60;;;49.70;;
18503;SDS011;9381;54.244;10.074;2024-03-22T07:27:58;88.47;;;48.70;;
18503;SDS011;9381;54.244;10.074;2024-03-22T07:32:59;94.80;;;50.03;;
18503;SDS011;9381;54.244;10.074;2024-03-22T07:37:59;96.38;;;49.55;;
18503;SDS011;9381;54.244;10.074;2024-03-22T07:42:59;95.50;;;49.10;;
18503;SDS011;9381;54.244;10.074;2024-03-22T07:48:05;97.67;;;51.40;;
18503;SDS011;9381;54.244;10.074;2024-03-22T07:53:06;104.30;;;52.83;;
18503;SDS011;9381;54.244;10.074;2024-03-22T07:58:06;98.57;;;52.07;;
18503;SDS011;9381;54.244;10.074;2024-03-22T08:03:07;96.53;;;49.50;;
18503;SDS011;9381;54.244;10.074;2024-03-22T08:08:08;89.57;;;46.97;;
18503;SDS011;9381;54.244;10.074;2024-03-22T08:13:08;83.53;;;45.27;;
18503;SDS011;9381;54.244;10.074;2024-03-22T08:18:09;80.47;;;45.53;;
18503;SDS011;9381;54.244;10.074;2024-03-22T08:23:09;77.57;;;42.47;;
18503;SDS011;9381;54.244;10.074;2024-03-22T08:28:10;81.57;;;44.70;;
18503;SDS011;9381;54.244;10.074;2024-03-22T08:33:10;77.13;;;42.50;;
18503;SDS011;9381;54.244;10.074;2024-03-22T08:38:11;63.63;;;38.47;;
18503;SDS011;9381;54.244;10.074;2024-03-22T08:43:14;59.17;;;34.47;;
18503;SDS011;9381;54.244;10.074;2024-03-22T08:48:15;38.87;;;23.20;;
18503;SDS011;9381;54.244;10.074;2024-03-22T08:53:15;29.60;;;18.73;;
18503;SDS011;9381;54.244;10.074;2024-03-22T08:58:15;22.27;;;13.80;;
18503;SDS011;9381;54.244;10.074;2024-03-22T09:03:18;18.03;;;12.63;;
18503;SDS011;9381;54.244;10.074;2024-03-22T09:08:21;17.30;;;11.53;;
18503;SDS011;9381;54.244;10.074;2024-03-22T09:13:24;14.67;;;10.47;;
18503;SDS011;9381;54.244;10.074;2024-03-22T09:18:25;13.60;;;9.93;;
18503;SDS011;9381;54.244;10.074;2024-03-22T09:23:26;15.80;;;9.90;;
18503;SDS011;9381;54.244;10.074;2024-03-22T09:28:26;15.57;;;9.63;;
18503;SDS011;9381;54.244;10.074;2024-03-22T09:33:27;11.77;;;8.30;;
18503;SDS011;9381;54.244;10.074;2024-03-22T09:38:27;11.90;;;8.00;;
18503;SDS011;9381;54.244;10.074;2024-03-22T09:43:28;10.57;;;7.60;;
18503;SDS011;9381;54.244;10.074;2024-03-22T09:48:30;8.67;;;6.77;;
18503;SDS011;9381;54.244;10.074;2024-03-22T09:53:32;11.10;;;7.83;;
18503;SDS011;9381;54.244;10.074;2024-03-22T09:58:32;11.80;;;7.73;;
18503;SDS011;9381;54.244;10.074;2024-03-22T10:03:33;10.80;;;7.67;;
18503;SDS011;9381;54.244;10.074;2024-03-22T10:08:34;11.13;;;8.40;;
18503;SDS011;9381;54.244;10.074;2024-03-22T10:13:35;11.20;;;8.27;;
18503;SDS011;9381;54.244;10.074;2024-03-22T10:18:35;11.70;;;8.63;;
18503;SDS011;9381;54.244;10.074;2024-03-22T10:23:36;12.03;;;8.43;;
18503;SDS011;9381;54.244;10.074;2024-03-22T10:28:37;13.00;;;8.80;;
18503;SDS011;9381;54.244;10.074;2024-03-22T10:33:44;13.00;;;9.07;;
18503;SDS011;9381;54.244;10.074;2024-03-22T10:38:45;15.37;;;9.27;;
18503;SDS011;9381;54.244;10.074;2024-03-22T10:43:50;15.63;;;9.73;;
18503;SDS011;9381;54.244;10.074;2024-03-22T10:48:50;14.63;;;9.90;;
18503;SDS011;9381;54.244;10.074;2024-03-22T10:53:52;14.70;;;9.47;;
18503;SDS011;9381;54.244;10.074;2024-03-22T10:58:54;12.87;;;8.77;;
18503;SDS011;9381;54.244;10.074;2024-03-22T11:04:04;14.67;;;9.47;;
18503;SDS011;9381;54.244;10.074;2024-03-22T11:09:10;14.13;;;9.43;;
18503;SDS011;9381;54.244;10.074;2024-03-22T11:14:10;12.63;;;8.20;;
18503;SDS011;9381;54.244;10.074;2024-03-22T11:19:11;8.13;;;7.33;;
18503;SDS011;9381;54.244;10.074;2024-03-22T11:24:12;8.97;;;7.97;;
18503;SDS011;9381;54.244;10.074;2024-03-22T11:29:14;7.73;;;7.03;;
18503;SDS011;9381;54.244;10.074;2024-03-22T11:34:14;10.00;;;7.70;;
18503;SDS011;9381;54.244;10.074;2024-03-22T11:39:15;8.33;;;6.93;;
18503;SDS011;9381;54.244;10.074;2024-03-22T11:44:15;8.37;;;7.07;;
18503;SDS011;9381;54.244;10.074;2024-03-22T11:49:18;7.87;;;6.67;;
18503;SDS011;9381;54.244;10.074;2024-03-22T11:54:19;7.83;;;6.33;;
18503;SDS011;9381;54.244;10.074;2024-03-22T11:59:20;10.67;;;7.07;;
18503;SDS011;9381;54.244;10.074;2024-03-22T12:04:20;6.70;;;5.47;;
18503;SDS011;9381;54.244;10.074;2024-03-22T12:09:22;7.00;;;5.67;;
18503;SDS011;9381;54.244;10.074;2024-03-22T12:14:22;9.00;;;6.00;;
18503;SDS011;9381;54.244;10.074;2024-03-22T12:19:23;8.20;;;6.10;;
18503;SDS011;9381;54.244;10.074;2024-03-22T12:24:23;7.17;;;5.37;;
18503;SDS011;9381;54.244;10.074;2024-03-22T12:29:24;7.60;;;4.83;;
18503;SDS011;9381;54.244;10.074;2024-03-22T12:34:24;7.97;;;4.67;;
18503;SDS011;9381;54.244;10.074;2024-03-22T12:39:25;6.17;;;4.90;;
18503;SDS011;9381;54.244;10.074;2024-03-22T12:44:25;5.73;;;4.60;;
18503;SDS011;9381;54.244;10.074;2024-03-22T12:49:26;8.63;;;4.50;;
18503;SDS011;9381;54.244;10.074;2024-03-22T12:54:26;7.70;;;4.82;;
18503;SDS011;9381;54.244;10.074;2024-03-22T12:59:26;10.80;;;4.57;;
18503;SDS011;9381;54.244;10.074;2024-03-22T13:04:27;13.00;;;4.93;;
18503;SDS011;9381;54.244;10.074;2024-03-22T13:09:27;16.02;;;5.40;;
18503;SDS011;9381;54.244;10.074;2024-03-22T13:14:27;17.65;;;4.80;;
18503;SDS011;9381;54.244;10.074;2024-03-22T13:19:28;16.97;;;5.80;;
18503;SDS011;9381;54.244;10.074;2024-03-22T13:24:28;18.13;;;4.73;;
18503;SDS011;9381;54.244;10.074;2024-03-22T13:29:29;16.03;;;5.47;;
18503;SDS011;9381;54.244;10.074;2024-03-22T13:34:29;21.63;;;5.53;;
18503;SDS011;9381;54.244;10.074;2024-03-22T13:39:29;17.08;;;5.15;;
18503;SDS011;9381;54.244;10.074;2024-03-22T13:44:32;22.53;;;5.80;;
18503;SDS011;9381;54.244;10.074;2024-03-22T13:49:33;20.77;;;5.63;;
18503;SDS011;9381;54.244;10.074;2024-03-22T13:54:33;20.67;;;5.60;;
18503;SDS011;9381;54.244;10.074;2024-03-22T13:59:33;18.40;;;5.57;;
18503;SDS011;9381;54.244;10.074;2024-03-22T14:04:34;27.77;;;6.17;;
18503;SDS011;9381;54.244;10.074;2024-03-22T14:09:35;25.47;;;6.17;;
18503;SDS011;9381;54.244;10.074;2024-03-22T14:14:36;23.20;;;5.70;;
18503;SDS011;9381;54.244;10.074;2024-03-22T14:19:36;27.20;;;6.37;;
18503;SDS011;9381;54.244;10.074;2024-03-22T14:24:36;26.93;;;6.23;;
18503;SDS011;9381;54.244;10.074;2024-03-22T14:29:37;21.75;;;6.07;;
18503;SDS011;9381;54.244;10.074;2024-03-22T14:34:37;22.23;;;6.22;;
18503;SDS011;9381;54.244;10.074;2024-03-22T14:39:37;22.57;;;6.40;;
18503;SDS011;9381;54.244;10.074;2024-03-22T14:44:38;29.73;;;6.40;;
18503;SDS011;9381;54.244;10.074;2024-03-22T14:49:38;19.70;;;5.43;;
18503;SDS011;9381;54.244;10.074;2024-03-22T14:54:39;32.17;;;6.97;;
18503;SDS011;9381;54.244;10.074;2024-03-22T14:59:40;25.23;;;6.30;;
18503;SDS011;9381;54.244;10.074;2024-03-22T15:04:40;25.30;;;6.43;;
18503;SDS011;9381;54.244;10.074;2024-03-22T15:09:40;28.93;;;7.63;;
18503;SDS011;9381;54.244;10.074;2024-03-22T15:14:41;25.60;;;7.00;;
18503;SDS011;9381;54.244;10.074;2024-03-22T15:19:41;20.83;;;6.63;;
18503;SDS011;9381;54.244;10.074;2024-03-22T15:24:43;28.77;;;7.23;;
18503;SDS011;9381;54.244;10.074;2024-03-22T15:29:44;26.07;;;6.00;;
18503;SDS011;9381;54.244;10.074;2024-03-22T15:34:45;25.50;;;7.10;;
18503;SDS011;9381;54.244;10.074;2024-03-22T15:39:45;26.88;;;8.27;;
18503;SDS011;9381;54.244;10.074;2024-03-22T15:44:45;28.80;;;7.53;;
18503;SDS011;9381;54.244;10.074;2024-03-22T15:49:46;25.40;;;6.70;;
18503;SDS011;9381;54.244;10.074;2024-03-22T15:54:46;25.50;;;6.10;;
18503;SDS011;9381;54.244;10.074;2024-03-22T15:59:47;28.53;;;7.10;;
18503;SDS011;9381;54.244;10.074;2024-03-22T16:04:48;26.90;;;6.80;;
18503;SDS011;9381;54.244;10.074;2024-03-22T16:09:48;23.07;;;6.30;;
18503;SDS011;9381;54.244;10.074;2024-03-22T16:14:49;24.43;;;6.63;;
18503;SDS011;9381;54.244;10.074;2024-03-22T16:19:49;24.05;;;5.93;;
18503;SDS011;9381;54.244;10.074;2024-03-22T16:24:50;38.50;;;5.77;;
18503;SDS011;9381;54.244;10.074;2024-03-22T16:29:51;24.37;;;5.73;;
18503;SDS011;9381;54.244;10.074;2024-03-22T16:34:52;30.43;;;6.53;;
18503;SDS011;9381;54.244;10.074;2024-03-22T16:39:52;28.40;;;5.87;;
18503;SDS011;9381;54.244;10.074;2024-03-22T16:44:52;30.97;;;6.90;;
18503;SDS011;9381;54.244;10.074;2024-03-22T16:49:53;28.83;;;6.23;;
18503;SDS011;9381;54.244;10.074;2024-03-22T16:54:54;31.30;;;6.40;;
18503;SDS011;9381;54.244;10.074;2024-03-22T16:59:54;27.88;;;6.55;;
18503;SDS011;9381;54.244;10.074;2024-03-22T17:04:55;26.97;;;6.50;;
18503;SDS011;9381;54.244;10.074;2024-03-22T17:09:56;35.90;;;6.77;;
18503;SDS011;9381;54.244;10.074;2024-03-22T17:14:56;26.80;;;5.50;;
18503;SDS011;9381;54.244;10.074;2024-03-22T17:19:56;30.17;;;6.73;;
18503;SDS011;9381;54.244;10.074;2024-03-22T17:24:58;33.90;;;7.87;;
18503;SDS011;9381;54.244;10.074;2024-03-22T17:30:00;25.00;;;6.23;;
18503;SDS011;9381;54.244;10.074;2024-03-22T17:35:00;33.90;;;6.57;;
18503;SDS011;9381;54.244;10.074;2024-03-22T17:40:00;30.60;;;6.63;;
18503;SDS011;9381;54.244;10.074;2024-03-22T17:45:01;25.40;;;6.33;;
18503;SDS011;9381;54.244;10.074;2024-03-22T17:50:04;34.00;;;6.53;;
18503;SDS011;9381;54.244;10.074;2024-03-22T17:55:05;32.00;;;6.27;;
18503;SDS011;9381;54.244;10.074;2024-03-22T18:00:06;28.77;;;6.00;;
18503;SDS011;9381;54.244;10.074;2024-03-22T18:05:06;28.30;;;5.93;;
18503;SDS011;9381;54.244;10.074;2024-03-22T18:10:07;38.13;;;6.43;;
18503;SDS011;9381;54.244;10.074;2024-03-22T18:15:08;32.80;;;6.53;;
18503;SDS011;9381;54.244;10.074;2024-03-22T18:20:08;33.47;;;6.90;;
18503;SDS011;9381;54.244;10.074;2024-03-22T18:25:10;34.37;;;6.63;;
18503;SDS011;9381;54.244;10.074;2024-03-22T18:30:10;33.17;;;7.03;;
18503;SDS011;9381;54.244;10.074;2024-03-22T18:35:11;27.53;;;6.73;;
18503;SDS011;9381;54.244;10.074;2024-03-22T18:40:11;28.83;;;6.87;;
18503;SDS011;9381;54.244;10.074;2024-03-22T18:45:12;33.13;;;6.57;;
18503;SDS011;9381;54.244;10.074;2024-03-22T18:50:12;37.43;;;6.57;;
18503;SDS011;9381;54.244;10.074;2024-03-22T18:55:12;32.70;;;6.70;;
18503;SDS011;9381;54.244;10.074;2024-03-22T19:00:13;34.43;;;7.90;;
18503;SDS011;9381;54.244;10.074;2024-03-22T19:05:13;25.00;;;6.77;;
18503;SDS011;9381;54.244;10.074;2024-03-22T19:10:14;38.87;;;7.43;;
18503;SDS011;9381;54.244;10.074;2024-03-22T19:15:14;31.73;;;7.07;;
18503;SDS011;9381;54.244;10.074;2024-03-22T19:20:15;27.73;;;6.60;;
18503;SDS011;9381;54.244;10.074;2024-03-22T19:25:18;22.37;;;5.33;;
18503;SDS011;9381;54.244;10.074;2024-03-22T19:30:18;30.53;;;6.00;;
18503;SDS011;9381;54.244;10.074;2024-03-22T19:35:21;27.80;;;7.13;;
18503;SDS011;9381;54.244;10.074;2024-03-22T19:40:21;27.90;;;6.50;;
18503;SDS011;9381;54.244;10.074;2024-03-22T19:45:21;31.67;;;6.67;;
18503;SDS011;9381;54.244;10.074;2024-03-22T19:50:22;25.43;;;6.27;;
18503;SDS011;9381;54.244;10.074;2024-03-22T19:55:22;27.13;;;7.27;;
18503;SDS011;9381;54.244;10.074;2024-03-22T20:00:23;41.20;;;7.57;;
18503;SDS011;9381;54.244;10.074;2024-03-22T20:05:23;29.83;;;7.47;;
18503;SDS011;9381;54.244;10.074;2024-03-22T20:10:23;33.28;;;6.43;;
18503;SDS011;9381;54.244;10.074;2024-03-22T20:15:24;28.90;;;6.67;;
18503;SDS011;9381;54.244;10.074;2024-03-22T20:20:30;27.50;;;6.30;;
18503;SDS011;9381;54.244;10.074;2024-03-22T20:25:31;32.90;;;6.17;;
18503;SDS011;9381;54.244;10.074;2024-03-22T20:30:32;30.33;;;6.90;;
18503;SDS011;9381;54.244;10.074;2024-03-22T20:35:33;33.43;;;6.73;;
